Las Vegas, Nevada (DRI) Weather observations

Data are for observation ending at time listed.
 Day   Time    Ave.   Ave.  Ave.  Vector   Max.   Stn.    Total    Solar   Ave.  
  of    of     Air    Rel.  Wind   Wind    Wind   Baro.  Precip.   Rad.    Soil  
Year   Day     Temp.  Hum.  Speed  Dir.    Gust   Pres.                    Temp. 
2017   (PST)    F      %     mph   deg.    mph     mb.     in.     W/m2     F   
------------------------------------------------------------------------------
 322    0:30   54.9    19    4.2    34      9.2   953.1    0.00       0    72.1
 322    0:40   55.1    18    6.6     8     15.1   953.0    0.00       0    72.1
 322    0:50   55.0    18    6.7    16     12.5   953.1    0.00       0    72.0
 322    1:00   54.6    18    5.2    16     12.9   953.2    0.00       0    71.9
 322    1:10   54.4    18    7.1     8     14.8   953.2    0.00       0    71.8
 322    1:20   54.3    18    8.5   356     16.7   953.3    0.00       0    71.7
 322    1:30   53.9    18    7.4    10     13.2   953.3    0.00       0    71.6
 322    1:40   53.6    19    8.1   355     15.9   953.4    0.00       0    71.5
 322    1:50   53.3    19    5.3     6     11.6   953.5    0.00       0    71.4
 322    2:00   53.2    19    6.3     6     14.2   953.7    0.00       0    71.3
 322    2:10   53.2    19    5.0    28      9.6   953.9    0.00       0    71.2
 322    2:20   52.9    19    4.7    27     12.5   953.9    0.00       0    71.1
 322    2:30   52.8    19    6.2    14     13.7   953.8    0.00       0    71.0
 322    2:40   52.5    20    6.4    11     12.9   953.8    0.00       0    70.9
 322    2:50   52.1    20    7.4   353     13.7   953.8    0.00       0    70.8
 322    3:00   51.9    20    7.1    16     12.8   953.9    0.00       0    70.7
 322    3:10   51.8    21    7.2   350     14.0   954.0    0.00       0    70.6
 322    3:20   51.7    21    5.9    15     12.2   954.1    0.00       0    70.5
 322    3:30   50.8    22    4.1    47      7.2   954.2    0.00       0    70.4
 322    3:40   50.4    22    4.5    30      9.0   954.2    0.00       0    70.4
 322    3:50   50.3    22    3.9    25      7.0   954.3    0.00       0    70.3
 322    4:00   50.1    23    4.0    23      9.8   954.3    0.00       0    70.2
 322    4:10   50.2    23    4.4    24      9.1   954.5    0.00       0    70.1
 322    4:20   50.3    23    4.9     9     11.8   954.5    0.00       0    70.0
 322    4:30   50.3    23    4.8   356     10.8   954.5    0.00       0    69.9
 322    4:40   50.0    24    3.5    18      8.7   954.6    0.00       0    69.8
 322    4:50   49.9    24    4.4    24     10.9   954.7    0.00       0    69.7
 322    5:00   49.4    25    3.2    42      5.8   954.9    0.00       0    69.6
 322    5:10   48.8    25    3.4    22      6.4   955.0    0.00       0    69.5
 322    5:20   48.5    26    2.9    40      5.5   955.1    0.00       0    69.4
 322    5:30   48.4    26    3.3    30      6.9   955.1    0.00       0    69.3
 322    5:40   48.6    26    3.4    25      7.6   955.1    0.00       0    69.2
 322    5:50   48.9    25    3.2    11      8.6   955.2    0.00       0    69.1
 322    6:00   48.8    26    2.8    10      5.6   955.4    0.00       0    69.0
 322    6:10   48.6    26    3.2   355      9.1   955.5    0.00       2    68.9
 322    6:20   48.5    26    3.9   353      8.2   955.6    0.00       4    68.8
 322    6:30   48.5    26    3.8   357     10.5   955.7    0.00       6    68.7
 322    6:40   48.5    26    3.1   355      8.3   955.9    0.00      11    68.6
 322    6:50   48.7    25    3.5     1      7.9   956.0    0.00      13    68.5
 322    7:00   48.7    25    2.4   359      5.2   956.1    0.00      17    68.4
 322    7:10   48.6    25    3.2   357      8.0   956.2    0.00      18    68.3
 322    7:20   48.6    25    3.5   343      6.6   956.3    0.00      18    68.3
 322    7:30   48.9    25    3.2   340      7.3   956.4    0.00      22    68.2
 322    7:40   49.4    25    1.6   350      3.7   956.5    0.00      24    68.1
 322    7:50   49.5    24    2.1    41      4.7   956.6    0.00      25    67.9
 322    8:00   49.7    24    0.9    25      3.3   956.7    0.00      25    67.9
 322    8:10   50.1    24    1.6   340      4.7   956.8    0.00      25    67.8
 322    8:20   50.3    23    1.7   332      3.7   956.8    0.00      25    67.7
 322    8:30   50.7    23    2.1   355      4.6   956.7    0.00      28    67.6
 322    8:40   51.2    23    1.6   342      4.1   956.7    0.00      39    67.5
 322    8:50   51.9    22    1.9   324      4.5   956.8    0.00     438    67.4
 322    9:00   52.3    22    1.3    32      4.2   956.8    0.00     487    67.3
 322    9:10   52.7    20    2.5    41      5.7   956.8    0.00     517    67.2
 322    9:20   52.9    20    1.9     6      5.6   956.9    0.00     544    67.2
 322    9:30   53.1    20    1.9    33      6.6   956.9    0.00     569    67.1
 322    9:40   53.8    19    2.7    18      6.2   956.9    0.00     593    67.0
 322    9:50   54.2    19    3.1    26      6.4   956.9    0.00     613    66.9
 322   10:00   53.9    19    2.5    38      7.2   956.8    0.00     633    66.9
 322   10:10   54.3    19    0.9    50      3.7   956.8    0.00     650    66.8
 322   10:20   55.1    18    3.0   352      5.5   956.7    0.00     460    66.7
 322   10:30   55.7    18    3.2   358      6.6   956.4    0.00     680    66.7
 322   10:40   55.5    18    2.3    27      7.3   956.4    0.00     691    66.7
 322   10:50   56.0    17    1.4    20      6.0   956.2    0.00     700    66.7
 322   11:00   56.7    16    2.7     6      5.3   956.2    0.00     708    66.7
 322   11:10   57.8    15    1.2   281      5.0   956.0    0.00     714    66.7
 322   11:20   57.6    15    2.4    18      6.4   955.8    0.00     717    66.7
 322   11:30   57.9    15    2.4   344      6.1   955.6    0.00     719    66.7
 322   11:40   58.3    15    1.7   194      3.7   955.5    0.00     717    66.8
 322   11:50   59.5    14    1.4   341      4.7   955.3    0.00     715    66.9
 322   12:00   59.1    14    2.1   328      5.3   955.0    0.00     711    66.9
 322   12:10   59.5    14    2.2   331      6.0   954.7    0.00     706    67.0
 322   12:20   60.4    14    2.3    28      9.7   954.4    0.00     696    67.1
 322   12:30   59.0    14    2.4    20      7.5   954.2    0.00     688    67.2
 322   12:40   59.4    14    2.7    31      6.1   954.0    0.00     674    67.4
 322   12:50   59.2    14    1.8    45      8.3   953.9    0.00     659    67.5
 322   13:00   60.6    13    2.0    20      5.9   953.8    0.00     643    67.6
 322   13:10   60.1    13    3.2    25      6.9   953.6    0.00     625    67.8
 322   13:20   60.3    13    3.3    34      5.9   953.5    0.00     604    68.0
 322   13:30   60.3    13    2.0    41      7.1   953.3    0.00     581    68.1
 322   13:40   60.8    13    3.0    42      6.1   953.2    0.00     558    68.3
 322   13:50   60.4    13    2.9    39      6.3   953.0    0.00     532    68.5
 322   14:00   60.7    13    2.6    47      7.3   952.7    0.00     505    68.7
 322   14:10   61.5    13    3.9     4      7.8   952.6    0.00     477    68.9
 322   14:20   61.7    12    3.5     5      6.7   952.4    0.00     447    69.0
 322   14:30   62.3    12    2.5   342      4.9   952.3    0.00     415    69.2
 322   14:40   62.8    12    2.2    22      5.8   952.1    0.00     382    69.4
 322   14:50   62.3    12    2.8    18      7.6   952.2    0.00     349    69.6
 322   15:00   62.5    12    2.0     9      8.0   952.0    0.00     313    69.7
 322   15:10   63.8    12    1.2   196      3.4   952.0    0.00     279    69.8
 322   15:20   64.4    12    1.4   182      3.9   951.8    0.00     245    69.9
 322   15:30   64.0    11    0.6   334      4.0   951.9    0.00     211    70.1
 322   15:40   65.1    11    0.1   241      1.5   951.8    0.00     176    70.2
 322   15:50   62.5    12    0.5    27      3.2   951.7    0.00     123    70.2
 322   16:00   60.9    13    1.2    44      3.1   951.8    0.00      32    70.3
 322   16:10   60.4    13    0.2    37      1.5   951.8    0.00      21    70.3
 322   16:20   60.2    13    0.1    20      1.5   951.8    0.00      13    70.4
 322   16:30   60.1    13    0.1   358      1.3   951.9    0.00       7    70.4
 322   16:40   59.4    13    0.0     0      0.0   952.0    0.00       4    70.4
 322   16:50   58.5    14    0.0     0      0.0   952.0    0.00       3    70.4
 322   17:00   58.0    14    0.0     0      0.0   951.9    0.00       0    70.4
 322   17:10   57.1    15    0.0     0      0.0   951.8    0.00       0    70.4
 322   17:20   56.6    17    0.0     0      0.0   951.8    0.00       0    70.4
 322   17:30   56.1    18    0.0     0      0.0   951.9    0.00       0    70.4
 322   17:40   56.0    19    0.0     0      0.0   951.9    0.00       0    70.4
 322   17:50   55.5    19    0.0     0      0.0   952.0    0.00       0    70.3
 322   18:00   55.2    21    0.0     0      0.0   952.0    0.00       0    70.3
 322   18:10   54.9    21    0.0     0      0.0   952.0    0.00       0    70.2
 322   18:20   54.5    21    0.0     0      0.0   952.0    0.00       0    70.2
 322   18:30   54.4    21    0.0     0      0.0   952.1    0.00       0    70.1
 322   18:40   55.2    19    0.0   332      0.7   952.1    0.00       0    70.1
 322   18:50   55.9    18    0.1   263      1.9   952.1    0.00       0    70.0
 322   19:00   56.5    18    0.3   255      3.6   952.2    0.00       0    69.9
 322   19:10   56.8    18    0.2   218      2.3   952.3    0.00       0    69.9
 322   19:20   56.3    19    0.1   260      2.0   952.2    0.00       0    69.8
 322   19:30   56.0    19    0.1   260      1.1   952.2    0.00       0    69.7
 322   19:40   55.7    20    0.1   242      0.9   952.2    0.00       0    69.6
 322   19:50   55.2    21    0.0   241      0.7   952.1    0.00       0    69.6
 322   20:00   53.9    22    0.4   170      2.2   952.2    0.00       0    69.5
 322   20:10   52.6    23    0.2   170      1.5   952.2    0.00       0    69.4
 322   20:20   51.8    24    0.0     0      0.0   952.2    0.00       0    69.4
 322   20:30   51.5    25    0.0     0      0.0   952.3    0.00       0    69.3
 322   20:40   51.6    26    0.0     0      0.0   952.2    0.00       0    69.2
 322   20:50   51.6    25    0.0     0      0.0   952.1    0.00       0    69.1
 322   21:00   50.8    27    0.0     0      0.0   952.1    0.00       0    69.0
 322   21:10   49.8    29    0.1   146      1.9   952.1    0.00       0    69.0
 322   21:20   49.4    29    0.6   153      2.3   952.1    0.00       0    68.9
 322   21:30   49.4    29    0.0     0      0.0   952.2    0.00       0    68.8
 322   21:40   48.8    30    0.0     0      0.0   952.2    0.00       0    68.7
 322   21:50   48.3    31    0.3   156      1.5   952.1    0.00       0    68.6
 322   22:00   49.0    28    1.0   169      2.2   952.1    0.00       0    68.5
 322   22:10   49.2    26    0.2   172      1.8   952.1    0.00       0    68.5
 322   22:20   48.8    26    0.0   181      0.5   952.0    0.00       0    68.4
 322   22:30   48.7    26    0.1   158      1.1   952.1    0.00       0    68.3
 322   22:40   48.6    26    0.9   164      2.6   952.2    0.00       0    68.2
 322   22:50   48.7    24    1.6   172      3.2   952.3    0.00       0    68.1
 322   23:00   48.2    24    0.2   184      1.5   952.2    0.00       0    68.0
 322   23:10   47.8    24    0.3   178      1.7   952.2    0.00       0    67.9
 322   23:20   47.4    25    0.1   170      0.7   952.1    0.00       0    67.8
 322   23:30   47.0    26    0.1   162      0.7   952.1    0.00       0    67.7
 322   23:40   46.6    27    0.1   163      1.4   952.1    0.00       0    67.7
 322   23:50   46.8    25    0.8   165      3.1   952.0    0.00       0    67.6
 323    0:00   46.9    25    0.6   182      2.7   952.0    0.00       0    67.5
 323    0:10   46.5    26    0.3   168      1.2   952.1    0.00       0    67.4
 323    0:20   46.4    26    0.4   179      1.9   952.0    0.00       0    67.3

Return to Las Vegas, Nevada graphs page.


Western Regional Climate Center,wrcc@dri.edu